sensor_id;sensor_type;location;lat;lon;timestamp;pressure;altitude;pressure_sealevel;temperature
64296;BMP280;51082;38.236;15.432;2022-11-20T00:00:55;100772.81;;;22.96
64296;BMP280;51082;38.236;15.432;2022-11-20T00:01:57;100762.44;;;23.00
64296;BMP280;51082;38.236;15.432;2022-11-20T00:02:58;100769.84;;;23.03
64296;BMP280;51082;38.236;15.432;2022-11-20T00:04:00;100762.94;;;23.02
64296;BMP280;51082;38.236;15.432;2022-11-20T00:05:02;100760.34;;;22.97
64296;BMP280;51082;38.236;15.432;2022-11-20T00:06:05;100757.16;;;22.95
64296;BMP280;51082;38.236;15.432;2022-11-20T00:07:06;100758.16;;;22.99
64296;BMP280;51082;38.236;15.432;2022-11-20T00:08:08;100770.41;;;23.00
64296;BMP280;51082;38.236;15.432;2022-11-20T00:09:10;100761.38;;;23.01
64296;BMP280;51082;38.236;15.432;2022-11-20T00:10:12;100756.06;;;23.01
64296;BMP280;51082;38.236;15.432;2022-11-20T00:11:14;100755.03;;;22.97
64296;BMP280;51082;38.236;15.432;2022-11-20T00:12:17;100759.22;;;23.03
64296;BMP280;51082;38.236;15.432;2022-11-20T00:13:19;100749.16;;;23.00
64296;BMP280;51082;38.236;15.432;2022-11-20T00:14:21;100748.38;;;22.99
64296;BMP280;51082;38.236;15.432;2022-11-20T00:15:22;100752.84;;;22.99
64296;BMP280;51082;38.236;15.432;2022-11-20T00:16:26;100753.09;;;23.02
64296;BMP280;51082;38.236;15.432;2022-11-20T00:17:27;100754.69;;;23.03
64296;BMP280;51082;38.236;15.432;2022-11-20T00:18:29;100751.28;;;22.98
64296;BMP280;51082;38.236;15.432;2022-11-20T00:19:31;100749.47;;;22.93
64296;BMP280;51082;38.236;15.432;2022-11-20T00:20:33;100756.34;;;22.99
64296;BMP280;51082;38.236;15.432;2022-11-20T00:21:34;100742.72;;;23.06
64296;BMP280;51082;38.236;15.432;2022-11-20T00:22:36;100740.63;;;23.03
64296;BMP280;51082;38.236;15.432;2022-11-20T00:23:38;100733.78;;;22.97
64296;BMP280;51082;38.236;15.432;2022-11-20T00:24:40;100729.53;;;22.96
64296;BMP280;51082;38.236;15.432;2022-11-20T00:25:41;100737.81;;;22.89
64296;BMP280;51082;38.236;15.432;2022-11-20T00:26:43;100731.13;;;22.97
64296;BMP280;51082;38.236;15.432;2022-11-20T00:27:46;100734.03;;;23.00
64296;BMP280;51082;38.236;15.432;2022-11-20T00:28:49;100727.34;;;23.03
64296;BMP280;51082;38.236;15.432;2022-11-20T00:29:51;100727.31;;;23.08
64296;BMP280;51082;38.236;15.432;2022-11-20T00:30:59;100718.81;;;23.11
64296;BMP280;51082;38.236;15.432;2022-11-20T00:32:01;100726.22;;;23.14
64296;BMP280;51082;38.236;15.432;2022-11-20T00:33:03;100718.88;;;23.01
64296;BMP280;51082;38.236;15.432;2022-11-20T00:34:04;100719.50;;;22.88
64296;BMP280;51082;38.236;15.432;2022-11-20T00:35:07;100714.25;;;22.83
64296;BMP280;51082;38.236;15.432;2022-11-20T00:36:08;100711.59;;;22.78
64296;BMP280;51082;38.236;15.432;2022-11-20T00:37:11;100704.69;;;22.71
64296;BMP280;51082;38.236;15.432;2022-11-20T00:38:12;100699.97;;;22.68
64296;BMP280;51082;38.236;15.432;2022-11-20T00:39:14;100698.34;;;22.78
64296;BMP280;51082;38.236;15.432;2022-11-20T00:40:16;100695.69;;;22.72
64296;BMP280;51082;38.236;15.432;2022-11-20T00:41:18;100698.13;;;22.69
64296;BMP280;51082;38.236;15.432;2022-11-20T00:42:19;100700.53;;;23.38
64296;BMP280;51082;38.236;15.432;2022-11-20T00:43:23;100701.59;;;23.61
64296;BMP280;51082;38.236;15.432;2022-11-20T00:44:24;100692.25;;;23.69
64296;BMP280;51082;38.236;15.432;2022-11-20T00:45:26;100695.03;;;22.96
64296;BMP280;51082;38.236;15.432;2022-11-20T00:46:28;100699.09;;;23.75
64296;BMP280;51082;38.236;15.432;2022-11-20T00:47:30;100688.19;;;23.76
64296;BMP280;51082;38.236;15.432;2022-11-20T00:48:31;100686.63;;;23.75
64296;BMP280;51082;38.236;15.432;2022-11-20T00:49:34;100692.25;;;23.69
64296;BMP280;51082;38.236;15.432;2022-11-20T00:50:35;100692.34;;;23.01
64296;BMP280;51082;38.236;15.432;2022-11-20T00:51:37;100689.75;;;22.86
64296;BMP280;51082;38.236;15.432;2022-11-20T00:52:38;100692.44;;;22.81
64296;BMP280;51082;38.236;15.432;2022-11-20T00:53:41;100682.94;;;22.74
64296;BMP280;51082;38.236;15.432;2022-11-20T00:54:42;100681.41;;;22.68
64296;BMP280;51082;38.236;15.432;2022-11-20T00:55:52;100683.25;;;22.68
64296;BMP280;51082;38.236;15.432;2022-11-20T00:56:53;100684.25;;;22.72
64296;BMP280;51082;38.236;15.432;2022-11-20T00:57:55;100682.16;;;23.08
64296;BMP280;51082;38.236;15.432;2022-11-20T00:58:59;100681.72;;;22.57
64296;BMP280;51082;38.236;15.432;2022-11-20T01:00:01;100679.06;;;23.30
64296;BMP280;51082;38.236;15.432;2022-11-20T01:01:02;100672.91;;;23.34
64296;BMP280;51082;38.236;15.432;2022-11-20T01:02:05;100680.44;;;23.27
64296;BMP280;51082;38.236;15.432;2022-11-20T01:03:06;100671.47;;;22.40
64296;BMP280;51082;38.236;15.432;2022-11-20T01:04:08;100670.75;;;23.07
64296;BMP280;51082;38.236;15.432;2022-11-20T01:05:09;100679.78;;;23.06
64296;BMP280;51082;38.236;15.432;2022-11-20T01:06:12;100670.50;;;23.09
64296;BMP280;51082;38.236;15.432;2022-11-20T01:07:14;100677.25;;;22.91
64296;BMP280;51082;38.236;15.432;2022-11-20T01:08:16;100673.81;;;22.91
64296;BMP280;51082;38.236;15.432;2022-11-20T01:09:17;100669.59;;;22.85
64296;BMP280;51082;38.236;15.432;2022-11-20T01:10:19;100669.72;;;22.69
64296;BMP280;51082;38.236;15.432;2022-11-20T01:11:21;100673.97;;;22.11
64296;BMP280;51082;38.236;15.432;2022-11-20T01:12:23;100661.38;;;22.86
64296;BMP280;51082;38.236;15.432;2022-11-20T01:13:25;100657.28;;;22.99
64296;BMP280;51082;38.236;15.432;2022-11-20T01:14:41;100656.66;;;23.12
64296;BMP280;51082;38.236;15.432;2022-11-20T01:15:43;100662.72;;;23.18
64296;BMP280;51082;38.236;15.432;2022-11-20T01:16:45;100666.41;;;23.22
64296;BMP280;51082;38.236;15.432;2022-11-20T01:17:47;100665.03;;;22.90
64296;BMP280;51082;38.236;15.432;2022-11-20T01:18:49;100658.53;;;22.72
64296;BMP280;51082;38.236;15.432;2022-11-20T01:19:52;100664.41;;;22.20
64296;BMP280;51082;38.236;15.432;2022-11-20T01:20:53;100665.22;;;22.16
64296;BMP280;51082;38.236;15.432;2022-11-20T01:21:55;100658.78;;;22.22
64296;BMP280;51082;38.236;15.432;2022-11-20T01:22:56;100666.25;;;22.20
64296;BMP280;51082;38.236;15.432;2022-11-20T01:23:58;100664.88;;;22.27
64296;BMP280;51082;38.236;15.432;2022-11-20T01:25:00;100655.09;;;22.23
64296;BMP280;51082;38.236;15.432;2022-11-20T01:26:02;100656.69;;;22.14
64296;BMP280;51082;38.236;15.432;2022-11-20T01:27:04;100650.91;;;22.06
64296;BMP280;51082;38.236;15.432;2022-11-20T01:28:06;100657.56;;;22.04
64296;BMP280;51082;38.236;15.432;2022-11-20T01:29:08;100650.97;;;21.96
64296;BMP280;51082;38.236;15.432;2022-11-20T01:30:14;100656.28;;;21.96
64296;BMP280;51082;38.236;15.432;2022-11-20T01:31:16;100660.38;;;22.23
64296;BMP280;51082;38.236;15.432;2022-11-20T01:32:18;100658.91;;;21.91
64296;BMP280;51082;38.236;15.432;2022-11-20T01:33:19;100655.75;;;21.89
64296;BMP280;51082;38.236;15.432;2022-11-20T01:34:22;100660.53;;;21.92
64296;BMP280;51082;38.236;15.432;2022-11-20T01:35:24;100660.47;;;22.02
64296;BMP280;51082;38.236;15.432;2022-11-20T01:36:26;100663.72;;;21.89
64296;BMP280;51082;38.236;15.432;2022-11-20T01:37:28;100662.63;;;21.90
64296;BMP280;51082;38.236;15.432;2022-11-20T01:38:29;100659.47;;;21.83
64296;BMP280;51082;38.236;15.432;2022-11-20T01:39:31;100657.63;;;21.79
64296;BMP280;51082;38.236;15.432;2022-11-20T01:40:34;100660.28;;;21.73
64296;BMP280;51082;38.236;15.432;2022-11-20T01:41:35;100665.84;;;21.67
64296;BMP280;51082;38.236;15.432;2022-11-20T01:42:57;100657.94;;;21.62
64296;BMP280;51082;38.236;15.432;2022-11-20T01:44:21;100656.84;;;21.58
64296;BMP280;51082;38.236;15.432;2022-11-20T01:45:50;100661.63;;;21.56
64296;BMP280;51082;38.236;15.432;2022-11-20T01:46:54;100661.66;;;21.61
64296;BMP280;51082;38.236;15.432;2022-11-20T01:47:57;100666.13;;;21.55
64296;BMP280;51082;38.236;15.432;2022-11-20T01:48:59;100671.19;;;21.57
64296;BMP280;51082;38.236;15.432;2022-11-20T01:50:04;100670.91;;;21.58
64296;BMP280;51082;38.236;15.432;2022-11-20T01:51:07;100671.69;;;21.59
64296;BMP280;51082;38.236;15.432;2022-11-20T01:52:13;100675.41;;;21.63
64296;BMP280;51082;38.236;15.432;2022-11-20T01:53:16;100684.66;;;21.70
64296;BMP280;51082;38.236;15.432;2022-11-20T01:54:21;100681.03;;;22.36
64296;BMP280;51082;38.236;15.432;2022-11-20T01:55:24;100677.59;;;22.30
64296;BMP280;51082;38.236;15.432;2022-11-20T01:56:28;100688.59;;;21.78
64296;BMP280;51082;38.236;15.432;2022-11-20T01:57:32;100685.19;;;21.72
64296;BMP280;51082;38.236;15.432;2022-11-20T01:58:35;100684.41;;;21.77
64296;BMP280;51082;38.236;15.432;2022-11-20T01:59:40;100687.00;;;21.82
64296;BMP280;51082;38.236;15.432;2022-11-20T02:00:44;100688.63;;;21.83
64296;BMP280;51082;38.236;15.432;2022-11-20T02:01:46;100677.53;;;21.66
64296;BMP280;51082;38.236;15.432;2022-11-20T02:02:50;100671.88;;;22.03
64296;BMP280;51082;38.236;15.432;2022-11-20T02:03:52;100676.88;;;22.20
64296;BMP280;51082;38.236;15.432;2022-11-20T02:04:55;100676.84;;;22.25
64296;BMP280;51082;38.236;15.432;2022-11-20T02:06:01;100669.09;;;22.33
64296;BMP280;51082;38.236;15.432;2022-11-20T02:07:05;100676.47;;;22.47
64296;BMP280;51082;38.236;15.432;2022-11-20T02:08:08;100670.91;;;22.43
64296;BMP280;51082;38.236;15.432;2022-11-20T02:09:09;100673.53;;;21.58
64296;BMP280;51082;38.236;15.432;2022-11-20T02:10:12;100664.94;;;22.17
64296;BMP280;51082;38.236;15.432;2022-11-20T02:11:13;100671.00;;;22.33
64296;BMP280;51082;38.236;15.432;2022-11-20T02:12:15;100666.44;;;22.33
64296;BMP280;51082;38.236;15.432;2022-11-20T02:13:31;100664.81;;;22.43
64296;BMP280;51082;38.236;15.432;2022-11-20T02:14:44;100663.69;;;22.49
64296;BMP280;51082;38.236;15.432;2022-11-20T02:15:46;100674.88;;;22.46
64296;BMP280;51082;38.236;15.432;2022-11-20T02:16:50;100666.41;;;22.44
64296;BMP280;51082;38.236;15.432;2022-11-20T02:17:53;100662.97;;;22.43
64296;BMP280;51082;38.236;15.432;2022-11-20T02:18:54;100661.38;;;22.42
64296;BMP280;51082;38.236;15.432;2022-11-20T02:19:57;100664.03;;;22.42
64296;BMP280;51082;38.236;15.432;2022-11-20T02:20:59;100656.94;;;22.32
64296;BMP280;51082;38.236;15.432;2022-11-20T02:22:04;100654.53;;;22.31
64296;BMP280;51082;38.236;15.432;2022-11-20T02:23:08;100655.63;;;22.25
64296;BMP280;51082;38.236;15.432;2022-11-20T02:24:15;100661.19;;;22.28
64296;BMP280;51082;38.236;15.432;2022-11-20T02:25:16;100660.63;;;22.31
64296;BMP280;51082;38.236;15.432;2022-11-20T02:26:19;100664.06;;;22.32
64296;BMP280;51082;38.236;15.432;2022-11-20T02:27:21;100671.50;;;22.30
64296;BMP280;51082;38.236;15.432;2022-11-20T02:28:24;100671.81;;;22.23
64296;BMP280;51082;38.236;15.432;2022-11-20T02:29:25;100681.38;;;22.19
64296;BMP280;51082;38.236;15.432;2022-11-20T02:30:28;100682.09;;;22.35
64296;BMP280;51082;38.236;15.432;2022-11-20T02:31:33;100677.81;;;22.44
64296;BMP280;51082;38.236;15.432;2022-11-20T02:32:37;100672.00;;;22.37
64296;BMP280;51082;38.236;15.432;2022-11-20T02:33:38;100670.66;;;22.39
64296;BMP280;51082;38.236;15.432;2022-11-20T02:34:40;100669.16;;;22.28
64296;BMP280;51082;38.236;15.432;2022-11-20T02:35:43;100671.50;;;22.30
64296;BMP280;51082;38.236;15.432;2022-11-20T02:36:45;100669.38;;;22.27
64296;BMP280;51082;38.236;15.432;2022-11-20T02:37:48;100665.09;;;22.36
64296;BMP280;51082;38.236;15.432;2022-11-20T02:38:50;100662.97;;;22.38
64296;BMP280;51082;38.236;15.432;2022-11-20T02:39:54;100658.44;;;22.44
64296;BMP280;51082;38.236;15.432;2022-11-20T02:40:55;100663.44;;;22.45
64296;BMP280;51082;38.236;15.432;2022-11-20T02:42:00;100659.25;;;22.44
64296;BMP280;51082;38.236;15.432;2022-11-20T02:43:04;100658.47;;;22.38
64296;BMP280;51082;38.236;15.432;2022-11-20T02:44:07;100658.22;;;22.35
64296;BMP280;51082;38.236;15.432;2022-11-20T02:45:11;100661.63;;;22.40
64296;BMP280;51082;38.236;15.432;2022-11-20T02:46:14;100659.34;;;22.29
64296;BMP280;51082;38.236;15.432;2022-11-20T02:47:17;100655.91;;;22.23
64296;BMP280;51082;38.236;15.432;2022-11-20T02:48:20;100651.63;;;22.27
64296;BMP280;51082;38.236;15.432;2022-11-20T02:49:21;100657.50;;;22.24
64296;BMP280;51082;38.236;15.432;2022-11-20T02:50:23;100661.44;;;22.27
64296;BMP280;51082;38.236;15.432;2022-11-20T02:51:25;100661.91;;;22.39
64296;BMP280;51082;38.236;15.432;2022-11-20T02:52:27;100656.38;;;22.35
64296;BMP280;51082;38.236;15.432;2022-11-20T02:53:28;100661.94;;;22.34
64296;BMP280;51082;38.236;15.432;2022-11-20T02:54:30;100659.56;;;22.27
64296;BMP280;51082;38.236;15.432;2022-11-20T02:55:33;100661.44;;;22.27
64296;BMP280;51082;38.236;15.432;2022-11-20T02:56:37;100660.41;;;22.28
64296;BMP280;51082;38.236;15.432;2022-11-20T02:57:38;100660.38;;;22.33
64296;BMP280;51082;38.236;15.432;2022-11-20T02:58:41;100662.47;;;22.36
64296;BMP280;51082;38.236;15.432;2022-11-20T02:59:42;100654.75;;;22.39
64296;BMP280;51082;38.236;15.432;2022-11-20T03:00:46;100661.34;;;22.47
64296;BMP280;51082;38.236;15.432;2022-11-20T03:01:47;100660.31;;;22.43
64296;BMP280;51082;38.236;15.432;2022-11-20T03:02:49;100657.94;;;22.42
64296;BMP280;51082;38.236;15.432;2022-11-20T03:03:50;100659.38;;;22.19
64296;BMP280;51082;38.236;15.432;2022-11-20T03:04:55;100646.91;;;22.14
64296;BMP280;51082;38.236;15.432;2022-11-20T03:05:58;100662.53;;;22.21
64296;BMP280;51082;38.236;15.432;2022-11-20T03:07:00;100670.50;;;22.21
64296;BMP280;51082;38.236;15.432;2022-11-20T03:08:01;100664.66;;;22.24
64296;BMP280;51082;38.236;15.432;2022-11-20T03:09:03;100666.19;;;22.30
64296;BMP280;51082;38.236;15.432;2022-11-20T03:10:05;100662.72;;;22.34
64296;BMP280;51082;38.236;15.432;2022-11-20T03:11:09;100660.09;;;22.29
64296;BMP280;51082;38.236;15.432;2022-11-20T03:12:10;100664.06;;;22.32
64296;BMP280;51082;38.236;15.432;2022-11-20T03:13:12;100661.69;;;22.30
64296;BMP280;51082;38.236;15.432;2022-11-20T03:14:13;100660.09;;;22.29
64296;BMP280;51082;38.236;15.432;2022-11-20T03:15:16;100660.38;;;22.23
64296;BMP280;51082;38.236;15.432;2022-11-20T03:16:18;100655.44;;;22.06
64296;BMP280;51082;38.236;15.432;2022-11-20T03:17:20;100659.41;;;21.98
64296;BMP280;51082;38.236;15.432;2022-11-20T03:18:22;100654.66;;;22.05
64296;BMP280;51082;38.236;15.432;2022-11-20T03:19:24;100648.28;;;22.06
64296;BMP280;51082;38.236;15.432;2022-11-20T03:20:25;100641.09;;;22.07
64296;BMP280;51082;38.236;15.432;2022-11-20T03:21:27;100643.00;;;22.01
64296;BMP280;51082;38.236;15.432;2022-11-20T03:22:30;100635.81;;;22.07
64296;BMP280;51082;38.236;15.432;2022-11-20T03:23:31;100631.31;;;22.02
64296;BMP280;51082;38.236;15.432;2022-11-20T03:24:33;100630.03;;;21.90
64296;BMP280;51082;38.236;15.432;2022-11-20T03:25:35;100632.13;;;21.98
64296;BMP280;51082;38.236;15.432;2022-11-20T03:26:40;100629.34;;;21.38
64296;BMP280;51082;38.236;15.432;2022-11-20T03:31:11;100614.47;;;21.68
64296;BMP280;51082;38.236;15.432;2022-11-20T03:32:01;100624.00;;;21.74
64296;BMP280;51082;38.236;15.432;2022-11-20T03:33:02;100618.69;;;21.69
64296;BMP280;51082;38.236;15.432;2022-11-20T03:34:06;100615.31;;;21.48
64296;BMP280;51082;38.236;15.432;2022-11-20T03:35:08;100613.13;;;21.76
64296;BMP280;51082;38.236;15.432;2022-11-20T03:36:14;100613.34;;;21.89
64296;BMP280;51082;38.236;15.432;2022-11-20T03:37:15;100605.94;;;21.81
64296;BMP280;51082;38.236;15.432;2022-11-20T03:38:18;100605.44;;;21.79
64296;BMP280;51082;38.236;15.432;2022-11-20T03:39:21;100604.84;;;21.87
64296;BMP280;51082;38.236;15.432;2022-11-20T03:40:25;100601.69;;;21.85
64296;BMP280;51082;38.236;15.432;2022-11-20T03:41:28;100597.50;;;21.69
64296;BMP280;51082;38.236;15.432;2022-11-20T03:42:33;100594.38;;;21.52
64296;BMP280;51082;38.236;15.432;2022-11-20T03:43:47;100594.38;;;21.42
64296;BMP280;51082;38.236;15.432;2022-11-20T03:44:49;100589.88;;;21.47
64296;BMP280;51082;38.236;15.432;2022-11-20T03:45:50;100589.59;;;21.54
64296;BMP280;51082;38.236;15.432;2022-11-20T03:46:52;100585.13;;;21.49
64296;BMP280;51082;38.236;15.432;2022-11-20T03:47:54;100593.28;;;21.58
64296;BMP280;51082;38.236;15.432;2022-11-20T03:48:56;100590.63;;;21.68
64296;BMP280;51082;38.236;15.432;2022-11-20T03:49:57;100592.47;;;21.62
64296;BMP280;51082;38.236;15.432;2022-11-20T03:51:08;100588.22;;;21.66
64296;BMP280;51082;38.236;15.432;2022-11-20T03:52:10;100590.63;;;21.63
64296;BMP280;51082;38.236;15.432;2022-11-20T03:53:11;100595.66;;;21.54
64296;BMP280;51082;38.236;15.432;2022-11-20T03:54:14;100582.97;;;21.56
64296;BMP280;51082;38.236;15.432;2022-11-20T03:55:15;100586.97;;;21.49
64296;BMP280;51082;38.236;15.432;2022-11-20T03:56:18;100597.56;;;21.33
64296;BMP280;51082;38.236;15.432;2022-11-20T03:57:19;100585.94;;;21.14
64296;BMP280;51082;38.236;15.432;2022-11-20T03:58:23;100587.03;;;21.13
64296;BMP280;51082;38.236;15.432;2022-11-20T03:59:25;100586.50;;;21.11
64296;BMP280;51082;38.236;15.432;2022-11-20T04:00:26;100585.66;;;21.11
64296;BMP280;51082;38.236;15.432;2022-11-20T04:01:30;100596.53;;;21.14
64296;BMP280;51082;38.236;15.432;2022-11-20T04:02:32;100592.31;;;21.13
64296;BMP280;51082;38.236;15.432;2022-11-20T04:03:34;100587.78;;;21.19
64296;BMP280;51082;38.236;15.432;2022-11-20T04:04:35;100592.84;;;21.25
64296;BMP280;51082;38.236;15.432;2022-11-20T04:05:38;100594.66;;;21.30
64296;BMP280;51082;38.236;15.432;2022-11-20T04:06:39;100595.72;;;21.24
64296;BMP280;51082;38.236;15.432;2022-11-20T04:07:41;100597.06;;;21.21
64296;BMP280;51082;38.236;15.432;2022-11-20T04:08:42;100593.34;;;21.27
64296;BMP280;51082;38.236;15.432;2022-11-20T04:09:45;100596.00;;;21.27
64296;BMP280;51082;38.236;15.432;2022-11-20T04:10:46;100582.47;;;21.29
64296;BMP280;51082;38.236;15.432;2022-11-20T04:11:48;100588.31;;;21.26
64296;BMP280;51082;38.236;15.432;2022-11-20T04:12:49;100569.00;;;21.10
64296;BMP280;51082;38.236;15.432;2022-11-20T04:13:54;100579.06;;;21.13
64296;BMP280;51082;38.236;15.432;2022-11-20T04:14:55;100574.84;;;21.07
64296;BMP280;51082;38.236;15.432;2022-11-20T04:15:58;100568.50;;;21.08
64296;BMP280;51082;38.236;15.432;2022-11-20T04:16:59;100571.13;;;21.08
64296;BMP280;51082;38.236;15.432;2022-11-20T04:18:01;100569.53;;;21.17
64296;BMP280;51082;38.236;15.432;2022-11-20T04:19:03;100565.28;;;21.26
64296;BMP280;51082;38.236;15.432;2022-11-20T04:20:05;100566.84;;;21.32
64296;BMP280;51082;38.236;15.432;2022-11-20T04:21:07;100571.63;;;21.35
64296;BMP280;51082;38.236;15.432;2022-11-20T04:22:09;100568.97;;;21.35
64296;BMP280;51082;38.236;15.432;2022-11-20T04:23:12;100565.28;;;21.26
64296;BMP280;51082;38.236;15.432;2022-11-20T04:24:14;100565.81;;;21.23
64296;BMP280;51082;38.236;15.432;2022-11-20T04:25:15;100563.94;;;21.24
64296;BMP280;51082;38.236;15.432;2022-11-20T04:26:17;100566.59;;;21.24
64296;BMP280;51082;38.236;15.432;2022-11-20T04:27:19;100571.34;;;21.32
64296;BMP280;51082;38.236;15.432;2022-11-20T04:28:22;100571.88;;;21.39
64296;BMP280;51082;38.236;15.432;2022-11-20T04:29:24;100567.38;;;21.39
64296;BMP280;51082;38.236;15.432;2022-11-20T04:30:27;100568.97;;;21.35
64296;BMP280;51082;38.236;15.432;2022-11-20T04:31:28;100567.91;;;21.36
64296;BMP280;51082;38.236;15.432;2022-11-20T04:32:31;100576.66;;;21.32
64296;BMP280;51082;38.236;15.432;2022-11-20T04:33:32;100571.09;;;21.33
64296;BMP280;51082;38.236;15.432;2022-11-20T04:34:35;100565.28;;;21.26
64296;BMP280;51082;38.236;15.432;2022-11-20T04:35:37;100572.97;;;21.23
64296;BMP280;51082;38.236;15.432;2022-11-20T04:36:38;100570.03;;;21.14
64296;BMP280;51082;38.236;15.432;2022-11-20T04:37:41;100576.13;;;21.10
64296;BMP280;51082;38.236;15.432;2022-11-20T04:38:42;100577.50;;;21.17
64296;BMP280;51082;38.236;15.432;2022-11-20T04:39:44;100571.91;;;21.19
64296;BMP280;51082;38.236;15.432;2022-11-20T04:40:45;100575.38;;;21.09
64296;BMP280;51082;38.236;15.432;2022-11-20T04:41:48;100578.03;;;21.04
64296;BMP280;51082;38.236;15.432;2022-11-20T04:43:10;100567.44;;;20.99
64296;BMP280;51082;38.236;15.432;2022-11-20T04:44:11;100574.31;;;20.95
64296;BMP280;51082;38.236;15.432;2022-11-20T04:45:15;100569.81;;;20.90
64296;BMP280;51082;38.236;15.432;2022-11-20T04:46:16;100569.00;;;20.85
64296;BMP280;51082;38.236;15.432;2022-11-20T04:47:18;100568.75;;;20.81
64296;BMP280;51082;38.236;15.432;2022-11-20T04:48:20;100568.97;;;20.69
64296;BMP280;51082;38.236;15.432;2022-11-20T04:49:22;100561.31;;;20.73
64296;BMP280;51082;38.236;15.432;2022-11-20T04:50:23;100564.78;;;20.63
64296;BMP280;51082;38.236;15.432;2022-11-20T04:51:25;100564.78;;;20.63
64296;BMP280;51082;38.236;15.432;2022-11-20T04:52:27;100570.06;;;20.58
64296;BMP280;51082;38.236;15.432;2022-11-20T04:53:29;100566.34;;;20.49
64296;BMP280;51082;38.236;15.432;2022-11-20T04:54:30;100567.91;;;20.55
64296;BMP280;51082;38.236;15.432;2022-11-20T04:55:33;100572.44;;;20.70
64296;BMP280;51082;38.236;15.432;2022-11-20T04:56:34;100574.84;;;20.71
64296;BMP280;51082;38.236;15.432;2022-11-20T04:57:36;100572.97;;;20.72
64296;BMP280;51082;38.236;15.432;2022-11-20T04:58:37;100580.13;;;20.66
64296;BMP280;51082;38.236;15.432;2022-11-20T04:59:40;100577.47;;;20.66
64296;BMP280;51082;38.236;15.432;2022-11-20T05:00:42;100576.91;;;20.49
64296;BMP280;51082;38.236;15.432;2022-11-20T05:01:44;100572.69;;;20.53
64296;BMP280;51082;38.236;15.432;2022-11-20T05:02:46;100574.78;;;20.46
64296;BMP280;51082;38.236;15.432;2022-11-20T05:03:48;100569.47;;;20.51
64296;BMP280;51082;38.236;15.432;2022-11-20T05:04:49;100576.34;;;20.52
64296;BMP280;51082;38.236;15.432;2022-11-20T05:05:52;100568.44;;;20.52
64296;BMP280;51082;38.236;15.432;2022-11-20T05:06:53;100570.03;;;20.53
64296;BMP280;51082;38.236;15.432;2022-11-20T05:07:55;100569.47;;;20.51
64296;BMP280;51082;38.236;15.432;2022-11-20T05:08:56;100567.91;;;20.55
64296;BMP280;51082;38.236;15.432;2022-11-20T05:09:59;100573.72;;;20.52
64296;BMP280;51082;38.236;15.432;2022-11-20T05:11:00;100567.41;;;20.53
64296;BMP280;51082;38.236;15.432;2022-11-20T05:12:03;100567.63;;;20.52
64296;BMP280;51082;38.236;15.432;2022-11-20T05:13:04;100570.53;;;20.55
64296;BMP280;51082;38.236;15.432;2022-11-20T05:14:06;100566.03;;;20.51
64296;BMP280;51082;38.236;15.432;2022-11-20T05:15:08;100572.66;;;20.48
64296;BMP280;51082;38.236;15.432;2022-11-20T05:16:12;100575.84;;;20.45
64296;BMP280;51082;38.236;15.432;2022-11-20T05:17:13;100572.63;;;20.43
64296;BMP280;51082;38.236;15.432;2022-11-20T05:18:16;100579.00;;;20.42
64296;BMP280;51082;38.236;15.432;2022-11-20T05:19:17;100578.19;;;20.47
64296;BMP280;51082;38.236;15.432;2022-11-20T05:20:19;100582.72;;;20.46
64296;BMP280;51082;38.236;15.432;2022-11-20T05:21:21;100578.19;;;20.47
64296;BMP280;51082;38.236;15.432;2022-11-20T05:22:23;100574.75;;;20.51
64296;BMP280;51082;38.236;15.432;2022-11-20T05:23:24;100584.28;;;20.52
64296;BMP280;51082;38.236;15.432;2022-11-20T05:24:27;100577.41;;;20.56
64296;BMP280;51082;38.236;15.432;2022-11-20T05:25:28;100577.41;;;20.56
64296;BMP280;51082;38.236;15.432;2022-11-20T05:26:30;100583.00;;;20.50
64296;BMP280;51082;38.236;15.432;2022-11-20T05:27:31;100581.41;;;20.54
64296;BMP280;51082;38.236;15.432;2022-11-20T05:28:34;100584.28;;;20.52
64296;BMP280;51082;38.236;15.432;2022-11-20T05:29:35;100587.47;;;20.49
64296;BMP280;51082;38.236;15.432;2022-11-20T05:30:37;100582.69;;;20.41
64296;BMP280;51082;38.236;15.432;2022-11-20T05:31:40;100588.78;;;20.42
64296;BMP280;51082;38.236;15.432;2022-11-20T05:32:42;100591.69;;;20.40
64296;BMP280;51082;38.236;15.432;2022-11-20T05:33:44;100589.56;;;20.37
64296;BMP280;51082;38.236;15.432;2022-11-20T05:34:46;100589.56;;;20.47
64296;BMP280;51082;38.236;15.432;2022-11-20T05:35:47;100586.13;;;20.52
64296;BMP280;51082;38.236;15.432;2022-11-20T05:36:49;100584.56;;;20.56
64296;BMP280;51082;38.236;15.432;2022-11-20T05:37:51;100582.72;;;20.56
64296;BMP280;51082;38.236;15.432;2022-11-20T05:38:53;100580.34;;;20.55
64296;BMP280;51082;38.236;15.432;2022-11-20T05:39:54;100568.97;;;20.49
64296;BMP280;51082;38.236;15.432;2022-11-20T05:41:02;100571.63;;;20.49
64296;BMP280;51082;38.236;15.432;2022-11-20T05:42:03;100572.66;;;20.48
64296;BMP280;51082;38.236;15.432;2022-11-20T05:43:23;100564.41;;;19.67
64296;BMP280;51082;38.236;15.432;2022-11-20T05:44:25;100566.19;;;20.03
64296;BMP280;51082;38.236;15.432;2022-11-20T05:45:26;100559.38;;;19.65
64296;BMP280;51082;38.236;15.432;2022-11-20T05:46:29;100562.03;;;20.28
64296;BMP280;51082;38.236;15.432;2022-11-20T05:47:32;100560.97;;;20.29
64296;BMP280;51082;38.236;15.432;2022-11-20T05:48:35;100569.19;;;20.32
64296;BMP280;51082;38.236;15.432;2022-11-20T05:49:36;100552.56;;;20.42
64296;BMP280;51082;38.236;15.432;2022-11-20T05:50:39;100554.66;;;20.40
64296;BMP280;51082;38.236;15.432;2022-11-20T05:51:40;100547.53;;;20.41
64296;BMP280;51082;38.236;15.432;2022-11-20T05:52:42;100551.47;;;20.33
64296;BMP280;51082;38.236;15.432;2022-11-20T05:53:43;100557.56;;;20.33
64296;BMP280;51082;38.236;15.432;2022-11-20T05:54:45;100556.00;;;20.37